Autryville, NC

10:22 AM EDT on March 28, 2015 (GMT -0400)
Lakewood High School | | Change Station
CLOSE
Current Station
Personal Weather Station
Location: Salemburg, NC
Elevation: 180 ft
Nearby Weather Stations
Active Advisory: Freeze Warning

Elev 180 ft 34.99 °N, 78.50 °W | Updated 37 seconds ago

Overcast
Overcast
44.5 °F
Feels Like 44 °F
N
0.0
Wind Variable Wind from WSW
Gusts 0.0 mph

Today
High -- | Low -- °F
--% Chance of Precip.
Yesterday
High -- | Low -- °F
Precip. -- in
7:07 AM 7:32 PM
Waxing Gibbous, 62% visible
Pressure 30.03 in
Visibility 10.0 miles
Clouds Scattered Clouds 7500 ft
Windchill 44 °F
Dew Point 34 °F
Humidity 65%
Rainfall 0.05 in
Snow Depth Not available.
UV 3 out of 12
Pollen 9.40 out of 12
Air Quality Not available.
Flu Activity Not available.
METAR KCTZ 281415Z AUTO 35005KT 10SM SCT075 07/M01 A3003 RMK AO2 T00681009

More Conditions Fewer Conditions

Pressure 30.03 in
Visibility 10.0 miles
Clouds Scattered Clouds 7500 ft
Windchill 44 °F
Dew Point 34 °F
Humidity 65%
Rainfall 0.05 in
Snow Depth Not available.
UV 3 out of 12
Pollen 9.40 out of 12
Air Quality Not available.
Flu Activity Not available.
METAR KCTZ 281415Z AUTO 35005KT 10SM SCT075 07/M01 A3003 RMK AO2 T00681009

More Conditions Fewer Conditions

10-Day Weather Forecast

Almanac

Astronomy

Mar. 28, 2015 Rise Set
Actual Time
Civil Twilight
Nautical Twilight
Astronomical Twilight
Moon
Length of Visible Light
Length of Day
Tomorrow will be .
, % of the Moon is Illuminated

Today's Extremes

State Highs State Lows

Community

WunderPhotos

Upload Photos

1,808,984 photos uploaded!

WunderBlogs® & News

Nearby

Air Quality

  Air Quality AQ Index Pollutant
Not available.

Snow Depth

Station Depth Elevation

Earthquake Activity

City Distance Mag. Time & Date
Minimum magnitude displayed is 2.5.

Coastal Water Temperatures

Place Temperature

Stations

Nearby Weather Stations

Station Location Temp. Windchill Dew Point Humidity Wind Precip. Elev Updated Type
                   
Freeze Warning
Statement as of 9:38 AM EDT on March 28, 2015

... A freeze warning remains in effect from 2 am to 10 am EDT
Sunday...

* temperature... will fall below freezing after midnight and into
the 20s for several hours Sunday morning.

* Impacts... a hard freeze will kill sensitive vegetation that
has already started to grow this season.

Precautionary/preparedness actions...

A freeze warning means sub-freezing temperatures are imminent or
highly likely. Crops and other sensitive vegetation will be
killed if exposed to sub-freezing temperatures... especially when
temperatures are expected to remain in the 20s for several hours.


Vincent